createdAt,value
2019-05-25T00:01:37.376Z,7.17
2019-05-25T00:04:04.569Z,8.13
2019-05-25T00:06:31.769Z,8.63
2019-05-25T00:08:59.018Z,9.30
2019-05-25T00:11:26.382Z,7.53
2019-05-25T00:13:53.589Z,9.90
2019-05-25T00:16:20.786Z,8.90
2019-05-25T00:18:48.035Z,9.27
2019-05-25T00:21:15.505Z,9.60
2019-05-25T00:23:42.712Z,9.03
2019-05-25T00:26:09.944Z,8.30
2019-05-25T00:28:37.120Z,9.17
2019-05-25T00:31:04.311Z,9.03
2019-05-25T00:33:32.104Z,9.37
2019-05-25T00:35:59.298Z,8.83
2019-05-25T00:38:26.498Z,8.47
2019-05-25T00:40:53.809Z,8.87
2019-05-25T00:43:21.000Z,9.10
2019-05-25T00:45:48.207Z,10.00
2019-05-25T00:48:15.394Z,10.93
2019-05-25T00:50:42.580Z,9.30
2019-05-25T00:53:09.776Z,9.93
2019-05-25T00:55:36.964Z,10.10
2019-05-25T00:58:04.211Z,10.73
2019-05-25T01:00:31.404Z,9.83
2019-05-25T01:02:58.609Z,10.47
2019-05-25T01:05:26.284Z,11.77
2019-05-25T01:07:53.545Z,11.33
2019-05-25T01:10:20.845Z,9.43
2019-05-25T01:12:48.251Z,8.23
2019-05-25T01:15:15.847Z,10.10
2019-05-25T01:17:43.036Z,9.53
2019-05-25T01:20:11.417Z,11.80
2019-05-25T01:22:38.677Z,11.07
2019-05-25T01:25:07.180Z,10.27
2019-05-25T01:27:34.380Z,9.87
2019-05-25T01:30:01.576Z,10.80
2019-05-25T01:32:28.816Z,9.90
2019-05-25T01:34:55.997Z,9.40
2019-05-25T01:37:23.186Z,10.43
2019-05-25T01:39:50.367Z,9.97
2019-05-25T01:42:17.568Z,10.53
2019-05-25T01:44:45.189Z,10.60
2019-05-25T01:47:12.402Z,10.23
2019-05-25T01:49:39.582Z,9.90
2019-05-25T01:52:06.771Z,10.23
2019-05-25T01:54:33.972Z,10.13
2019-05-25T01:57:01.477Z,9.60
2019-05-25T01:59:28.681Z,9.07
2019-05-25T02:01:55.891Z,8.57
2019-05-25T02:04:23.064Z,7.97
2019-05-25T02:06:50.346Z,8.83
2019-05-25T02:09:17.536Z,9.30
2019-05-25T02:11:44.708Z,9.23
2019-05-25T02:14:11.889Z,9.80
2019-05-25T02:16:39.074Z,8.77
2019-05-25T02:19:06.270Z,10.70
2019-05-25T02:21:33.444Z,10.03
2019-05-25T02:24:00.640Z,11.40
2019-05-25T02:26:27.864Z,12.40
2019-05-25T02:28:55.039Z,11.27
2019-05-25T02:31:22.224Z,11.33
2019-05-25T02:33:49.406Z,12.33
2019-05-25T02:36:16.591Z,10.77
2019-05-25T02:38:43.777Z,12.10
2019-05-25T02:41:10.977Z,11.73
2019-05-25T02:43:38.155Z,11.10
2019-05-25T02:46:05.370Z,10.20
2019-05-25T02:48:32.560Z,9.90
2019-05-25T02:50:59.757Z,9.97
2019-05-25T02:53:26.948Z,9.73
2019-05-25T02:55:54.188Z,10.60
2019-05-25T02:58:21.393Z,9.50
2019-05-25T03:00:48.592Z,8.97
2019-05-25T03:03:15.978Z,9.50
2019-05-25T03:05:43.692Z,9.60
2019-05-25T03:08:10.959Z,9.10
2019-05-25T03:10:38.856Z,8.53
2019-05-25T03:13:06.065Z,8.80
2019-05-25T03:15:33.262Z,9.37
2019-05-25T03:18:00.433Z,9.37
2019-05-25T03:20:27.624Z,8.20
2019-05-25T03:22:54.860Z,8.93
2019-05-25T03:25:22.057Z,8.60
2019-05-25T03:27:49.268Z,9.67
2019-05-25T03:30:28.284Z,8.63
2019-05-25T03:32:55.625Z,8.33
2019-05-25T03:35:22.813Z,8.70
2019-05-25T03:37:50.002Z,8.10
2019-05-25T03:40:17.200Z,8.63
2019-05-25T03:42:44.792Z,8.57
2019-05-25T03:45:12.008Z,8.70
2019-05-25T03:47:40.143Z,9.47
2019-05-25T03:50:07.324Z,9.83
2019-05-25T03:52:34.510Z,9.87
2019-05-25T03:55:01.769Z,10.57
2019-05-25T03:57:28.981Z,11.70
2019-05-25T03:59:56.181Z,10.87
2019-05-25T04:02:23.484Z,8.70
2019-05-25T04:04:50.692Z,10.00
2019-05-25T04:07:17.890Z,9.10
2019-05-25T04:09:45.268Z,9.67
2019-05-25T04:12:12.512Z,10.20
2019-05-25T04:14:41.949Z,10.47
2019-05-25T04:17:09.169Z,9.30
2019-05-25T04:19:36.409Z,10.53
2019-05-25T04:22:03.614Z,69.83
2019-05-25T04:24:30.798Z,39.20
2019-05-25T04:26:58.079Z,17.20
2019-05-25T04:29:25.282Z,11.27
2019-05-25T04:31:52.573Z,10.90
2019-05-25T04:34:19.781Z,10.93
2019-05-25T04:36:47.005Z,11.60
2019-05-25T04:39:14.205Z,11.70
2019-05-25T04:41:41.398Z,12.13
2019-05-25T04:44:08.605Z,12.30
2019-05-25T04:46:35.800Z,11.87
2019-05-25T04:49:03.927Z,13.40
2019-05-25T04:51:31.141Z,12.03
2019-05-25T04:53:58.320Z,12.97
2019-05-25T04:56:38.825Z,12.60
2019-05-25T04:58:54.592Z,11.73
2019-05-25T05:01:22.721Z,12.80
2019-05-25T05:03:50.164Z,11.37
2019-05-25T05:06:17.352Z,11.27
2019-05-25T05:08:44.701Z,12.10
2019-05-25T05:11:11.906Z,12.10
2019-05-25T05:13:39.100Z,12.00
2019-05-25T05:16:06.285Z,13.70
2019-05-25T05:18:33.500Z,11.03
2019-05-25T05:21:00.867Z,11.57
2019-05-25T05:23:28.045Z,12.10
2019-05-25T05:25:55.218Z,12.67
2019-05-25T05:28:22.422Z,11.90
2019-05-25T05:30:49.596Z,14.17
2019-05-25T05:33:16.789Z,11.87
2019-05-25T05:35:45.372Z,11.90
2019-05-25T05:38:12.751Z,9.93
2019-05-25T05:40:40.128Z,10.90
2019-05-25T05:43:11.158Z,9.50
2019-05-25T05:45:40.454Z,9.43
2019-05-25T05:48:09.626Z,9.40
2019-05-25T05:50:38.697Z,8.93
2019-05-25T05:53:05.913Z,8.87
2019-05-25T05:55:33.306Z,7.90
2019-05-25T05:58:01.314Z,8.20
2019-05-25T06:00:28.529Z,9.40
2019-05-25T06:02:55.733Z,8.83
2019-05-25T06:05:22.933Z,8.70
2019-05-25T06:07:50.113Z,9.80
2019-05-25T06:10:17.400Z,8.57
2019-05-25T06:12:44.617Z,9.30
2019-05-25T06:15:12.167Z,8.60
2019-05-25T06:17:39.365Z,9.80
2019-05-25T06:20:07.118Z,9.30
2019-05-25T06:22:34.317Z,10.67
2019-05-25T06:25:01.580Z,10.27
2019-05-25T06:27:28.765Z,11.00
2019-05-25T06:29:55.968Z,10.30
2019-05-25T06:32:23.184Z,10.20
2019-05-25T06:34:50.429Z,10.10
2019-05-25T06:37:17.612Z,8.93
2019-05-25T06:39:44.860Z,9.80
2019-05-25T06:42:12.064Z,9.00
2019-05-25T06:44:39.184Z,8.60
2019-05-25T06:47:06.392Z,7.73
2019-05-25T06:49:33.624Z,8.50
2019-05-25T06:52:01.829Z,8.00
2019-05-25T06:54:29.091Z,7.20
2019-05-25T06:56:56.385Z,8.90
2019-05-25T06:59:23.561Z,7.43
2019-05-25T07:01:50.776Z,7.07
2019-05-25T07:04:17.964Z,7.13
2019-05-25T07:06:45.196Z,7.43
2019-05-25T07:09:12.452Z,7.87
2019-05-25T07:11:39.646Z,7.27
2019-05-25T07:14:07.045Z,7.20
2019-05-25T07:16:34.250Z,6.53
2019-05-25T07:19:01.653Z,6.80
2019-05-25T07:21:28.981Z,8.03
2019-05-25T07:23:56.200Z,6.90
2019-05-25T07:26:23.434Z,7.17
2019-05-25T07:28:50.656Z,7.37
2019-05-25T07:31:17.989Z,7.10
2019-05-25T07:33:45.219Z,7.60
2019-05-25T07:36:12.476Z,6.63
2019-05-25T07:38:39.676Z,7.13
2019-05-25T07:41:06.890Z,6.90
2019-05-25T07:43:34.109Z,6.37
2019-05-25T07:46:01.317Z,6.00
2019-05-25T07:48:28.660Z,5.77
2019-05-25T07:50:55.875Z,5.73
2019-05-25T07:53:24.146Z,4.97
2019-05-25T07:55:51.354Z,5.17
2019-05-25T07:58:18.806Z,6.40
2019-05-25T08:00:46.153Z,5.87
2019-05-25T08:03:13.369Z,5.50
2019-05-25T08:05:40.581Z,5.70
2019-05-25T08:08:07.784Z,6.10
2019-05-25T08:10:35.025Z,6.80
2019-05-25T08:13:02.216Z,5.30
2019-05-25T08:15:29.556Z,5.50
2019-05-25T08:17:56.816Z,5.57
2019-05-25T08:20:24.000Z,5.63
2019-05-25T08:22:51.185Z,4.77
2019-05-25T08:25:18.372Z,5.07
2019-05-25T08:27:45.597Z,4.90
2019-05-25T08:30:12.937Z,6.00
2019-05-25T08:32:40.276Z,6.00
2019-05-25T08:35:07.953Z,5.00
2019-05-25T08:37:35.657Z,4.53
2019-05-25T08:40:03.928Z,4.70
2019-05-25T08:42:31.371Z,4.70
2019-05-25T08:44:58.613Z,4.00
2019-05-25T08:47:25.792Z,4.20
2019-05-25T08:49:53.168Z,4.30
2019-05-25T08:52:20.359Z,4.00
2019-05-25T08:54:48.482Z,4.70
2019-05-25T08:57:18.585Z,4.67
2019-05-25T08:59:45.220Z,3.97
2019-05-25T09:02:12.425Z,3.97
2019-05-25T09:04:39.658Z,4.50
2019-05-25T09:07:06.860Z,3.27
2019-05-25T09:09:34.052Z,3.83
2019-05-25T09:12:02.442Z,4.00
2019-05-25T09:14:31.591Z,3.97
2019-05-25T09:16:59.025Z,3.57
2019-05-25T09:19:26.233Z,3.60
2019-05-25T09:22:02.548Z,4.30
2019-05-25T09:24:22.529Z,3.93
2019-05-25T09:26:49.709Z,4.13
2019-05-25T09:29:16.928Z,3.90
2019-05-25T09:31:44.657Z,4.03
2019-05-25T09:34:11.863Z,4.00
2019-05-25T09:36:39.049Z,3.63
2019-05-25T09:39:06.656Z,3.80
2019-05-25T09:41:33.824Z,3.73
2019-05-25T09:44:01.020Z,3.60
2019-05-25T09:46:28.204Z,3.87
2019-05-25T09:48:55.456Z,3.80
2019-05-25T09:51:22.670Z,3.10
2019-05-25T09:53:49.894Z,3.40
2019-05-25T09:56:17.088Z,3.60
2019-05-25T09:58:44.278Z,3.20
2019-05-25T10:01:11.457Z,3.37
2019-05-25T10:03:38.624Z,3.60
2019-05-25T10:06:12.221Z,3.57
2019-05-25T10:08:34.900Z,3.30
2019-05-25T10:11:02.189Z,3.00
2019-05-25T10:13:29.389Z,3.47
2019-05-25T10:15:56.580Z,3.10
2019-05-25T10:18:23.760Z,3.90
2019-05-25T10:20:51.024Z,2.80
2019-05-25T10:23:18.221Z,2.80
2019-05-25T10:25:45.439Z,3.70
2019-05-25T10:28:12.655Z,3.20
2019-05-25T10:30:39.977Z,3.40
2019-05-25T10:33:07.149Z,3.30
2019-05-25T10:35:34.449Z,2.77
2019-05-25T10:38:01.658Z,3.60
2019-05-25T10:40:28.957Z,3.30
2019-05-25T10:42:56.169Z,3.03
2019-05-25T10:45:23.368Z,3.50
2019-05-25T10:47:50.576Z,3.20
2019-05-25T10:50:17.983Z,2.70
2019-05-25T10:52:45.268Z,3.13
2019-05-25T10:55:14.469Z,2.77
2019-05-25T10:57:41.676Z,3.23
2019-05-25T11:00:09.747Z,3.00
2019-05-25T11:02:36.953Z,2.70
2019-05-25T11:05:04.358Z,2.90
2019-05-25T11:07:31.551Z,2.83
2019-05-25T11:09:58.764Z,3.10
2019-05-25T11:12:26.206Z,3.20
2019-05-25T11:14:53.579Z,3.27
2019-05-25T11:17:20.856Z,3.10
2019-05-25T11:19:48.050Z,3.20
2019-05-25T11:22:15.265Z,2.80
2019-05-25T11:24:42.441Z,2.97
2019-05-25T11:27:09.794Z,3.33
2019-05-25T11:29:36.996Z,2.87
2019-05-25T11:32:05.714Z,3.20
2019-05-25T11:34:33.682Z,3.00
2019-05-25T11:37:00.879Z,2.90
2019-05-25T11:39:28.062Z,2.80
2019-05-25T11:41:55.246Z,3.33
2019-05-25T11:44:22.430Z,3.50
2019-05-25T11:46:49.614Z,2.90
2019-05-25T11:49:22.552Z,3.30
2019-05-25T11:51:45.901Z,3.30
2019-05-25T11:54:13.100Z,3.20
2019-05-25T11:56:40.325Z,3.10
2019-05-25T11:59:08.546Z,2.90
2019-05-25T12:01:35.720Z,2.87
2019-05-25T12:04:02.909Z,3.30
2019-05-25T12:06:30.096Z,2.97
2019-05-25T12:08:57.300Z,3.47
2019-05-25T12:11:24.520Z,3.07
2019-05-25T12:13:51.720Z,3.10
2019-05-25T12:16:19.012Z,3.10
2019-05-25T12:18:46.332Z,3.53
2019-05-25T12:21:13.556Z,3.27
2019-05-25T12:23:40.752Z,3.23
2019-05-25T12:26:07.953Z,4.07
2019-05-25T12:28:35.271Z,4.03
2019-05-25T12:31:02.469Z,3.97
2019-05-25T12:33:29.660Z,4.40
2019-05-25T12:35:56.848Z,4.70
2019-05-25T12:38:24.060Z,5.43
2019-05-25T12:40:53.967Z,5.30
2019-05-25T12:43:20.530Z,5.37
2019-05-25T12:45:47.712Z,3.90
2019-05-25T12:48:14.893Z,5.60
2019-05-25T12:50:42.220Z,5.47
2019-05-25T12:53:09.412Z,5.80
2019-05-25T12:55:36.612Z,5.17
2019-05-25T12:58:04.008Z,5.80
2019-05-25T13:00:32.136Z,5.23
2019-05-25T13:02:59.329Z,4.30
2019-05-25T13:05:34.302Z,4.17
2019-05-25T13:07:55.705Z,5.20
2019-05-25T13:10:22.941Z,4.40
2019-05-25T13:12:50.132Z,4.67
2019-05-25T13:15:17.341Z,4.50
2019-05-25T13:17:44.605Z,4.40
2019-05-25T13:20:12.742Z,4.73
2019-05-25T13:22:39.917Z,4.50
2019-05-25T13:25:07.497Z,3.10
2019-05-25T13:27:34.940Z,3.60
2019-05-25T13:30:03.306Z,4.10
2019-05-25T13:32:31.002Z,4.60
2019-05-25T13:34:58.233Z,4.20
2019-05-25T13:37:25.415Z,4.00
2019-05-25T13:39:52.608Z,3.93
2019-05-25T13:42:19.808Z,3.87
2019-05-25T13:44:47.120Z,3.70
2019-05-25T13:47:14.341Z,3.83
2019-05-25T13:49:41.557Z,4.80
2019-05-25T13:52:08.740Z,4.73
2019-05-25T13:54:35.957Z,5.13
2019-05-25T13:57:03.292Z,3.70
2019-05-25T13:59:30.488Z,4.03
2019-05-25T14:01:57.723Z,4.30
2019-05-25T14:04:25.029Z,4.30
2019-05-25T14:06:52.216Z,3.33
2019-05-25T14:09:19.419Z,5.57
2019-05-25T14:11:46.712Z,3.63
2019-05-25T14:14:13.924Z,4.10
2019-05-25T14:16:41.148Z,2.80
2019-05-25T14:19:08.342Z,3.37
2019-05-25T14:21:35.531Z,3.73
2019-05-25T14:24:02.716Z,4.40
2019-05-25T14:26:29.905Z,3.20
2019-05-25T14:28:57.192Z,4.23
2019-05-25T14:31:24.496Z,3.03
2019-05-25T14:33:51.744Z,3.20
2019-05-25T14:36:18.961Z,2.90
2019-05-25T14:38:46.259Z,2.73
2019-05-25T14:41:13.483Z,2.77
2019-05-25T14:43:40.720Z,3.00
2019-05-25T14:46:07.896Z,3.03
2019-05-25T14:48:35.284Z,2.80
2019-05-25T14:51:02.453Z,2.73
2019-05-25T14:53:29.631Z,2.37
2019-05-25T14:55:56.808Z,1.93
2019-05-25T14:58:23.980Z,2.20
2019-05-25T15:00:51.166Z,2.67
2019-05-25T15:03:18.411Z,2.33
2019-05-25T15:05:45.681Z,2.47
2019-05-25T15:08:12.869Z,2.50
2019-05-25T15:10:40.062Z,1.93
2019-05-25T15:13:07.265Z,2.30
2019-05-25T15:15:34.473Z,2.40
2019-05-25T15:18:01.844Z,2.47
2019-05-25T15:20:29.017Z,2.50
2019-05-25T15:22:56.220Z,2.47
2019-05-25T15:25:23.448Z,2.20
2019-05-25T15:27:50.663Z,2.00
2019-05-25T15:30:18.631Z,2.20
2019-05-25T15:32:45.940Z,2.00
2019-05-25T15:35:13.227Z,1.90
2019-05-25T15:37:40.429Z,2.10
2019-05-25T15:40:08.757Z,1.90
2019-05-25T15:42:35.984Z,2.20
2019-05-25T15:45:03.770Z,2.17
2019-05-25T15:47:30.958Z,2.23
2019-05-25T15:49:58.153Z,2.23
2019-05-25T15:52:25.373Z,2.30
2019-05-25T15:54:52.578Z,2.40
2019-05-25T15:57:19.787Z,2.00
2019-05-25T15:59:46.994Z,2.27
2019-05-25T16:02:14.293Z,2.80
2019-05-25T16:04:41.646Z,2.60
2019-05-25T16:07:09.034Z,2.20
2019-05-25T16:09:36.258Z,2.50
2019-05-25T16:12:03.640Z,2.70
2019-05-25T16:14:30.958Z,2.83
2019-05-25T16:16:58.158Z,2.93
2019-05-25T16:19:25.373Z,2.50
2019-05-25T16:21:52.588Z,3.30
2019-05-25T16:24:19.865Z,2.50
2019-05-25T16:26:47.172Z,3.13
2019-05-25T16:29:14.632Z,3.43
2019-05-25T16:31:41.977Z,2.93
2019-05-25T16:34:09.364Z,3.30
2019-05-25T16:36:36.717Z,2.90
2019-05-25T16:39:05.660Z,11.00
2019-05-25T16:41:32.824Z,8.07
2019-05-25T16:44:00.185Z,5.50
2019-05-25T16:46:27.422Z,4.73
2019-05-25T16:48:54.656Z,4.00
2019-05-25T16:51:22.144Z,6.33
2019-05-25T16:53:49.360Z,4.27
2019-05-25T16:56:16.781Z,4.03
2019-05-25T16:58:43.988Z,3.30
2019-05-25T17:01:11.325Z,5.30
2019-05-25T17:03:38.537Z,12.07
2019-05-25T17:06:06.641Z,3.60
2019-05-25T17:08:33.841Z,3.60
2019-05-25T17:11:01.055Z,3.27
2019-05-25T17:13:28.417Z,3.13
2019-05-25T17:15:55.632Z,5.10
2019-05-25T17:18:22.849Z,4.70
2019-05-25T17:20:50.059Z,5.33
2019-05-25T17:23:17.253Z,4.53
2019-05-25T17:25:44.435Z,4.93
2019-05-25T17:28:11.656Z,4.73
2019-05-25T17:30:41.320Z,5.10
2019-05-25T17:33:08.497Z,5.03
2019-05-25T17:35:35.780Z,5.23
2019-05-25T17:38:03.580Z,5.20
2019-05-25T17:40:30.848Z,5.30
2019-05-25T17:42:58.058Z,4.90
2019-05-25T17:45:25.246Z,4.93
2019-05-25T17:47:52.436Z,5.00
2019-05-25T17:50:19.626Z,5.10
2019-05-25T17:52:46.843Z,4.60
2019-05-25T17:55:14.380Z,4.80
2019-05-25T17:57:41.567Z,6.00
2019-05-25T18:00:09.652Z,5.20
2019-05-25T18:02:36.834Z,4.70
2019-05-25T18:05:04.168Z,4.50
2019-05-25T18:07:31.412Z,6.43
2019-05-25T18:09:58.568Z,6.17
2019-05-25T18:12:25.756Z,5.50
2019-05-25T18:14:52.962Z,7.43
2019-05-25T18:17:20.252Z,7.03
2019-05-25T18:19:47.456Z,7.27
2019-05-25T18:22:14.656Z,6.87
2019-05-25T18:24:41.833Z,7.13
2019-05-25T18:27:09.040Z,6.73
2019-05-25T18:29:36.233Z,6.70
2019-05-25T18:32:03.652Z,6.87
2019-05-25T18:34:30.865Z,7.10
2019-05-25T18:36:58.087Z,6.47
2019-05-25T18:39:25.273Z,6.87
2019-05-25T18:41:52.491Z,7.30
2019-05-25T18:44:19.694Z,7.17
2019-05-25T18:46:46.900Z,6.67
2019-05-25T18:49:14.124Z,6.57
2019-05-25T18:51:41.344Z,7.13
2019-05-25T18:54:08.532Z,6.80
2019-05-25T18:56:35.740Z,6.87
2019-05-25T18:59:03.085Z,7.10
2019-05-25T19:01:30.307Z,6.23
2019-05-25T19:03:57.616Z,7.70
2019-05-25T19:06:24.859Z,7.30
2019-05-25T19:08:52.064Z,6.73
2019-05-25T19:11:19.409Z,7.47
2019-05-25T19:13:46.592Z,7.10
2019-05-25T19:16:13.832Z,7.47
2019-05-25T19:18:41.105Z,7.37
2019-05-25T19:21:08.311Z,8.03
2019-05-25T19:23:35.505Z,7.13
2019-05-25T19:26:02.930Z,7.43
2019-05-25T19:28:30.128Z,7.40
2019-05-25T19:30:57.303Z,8.10
2019-05-25T19:33:24.609Z,7.50
2019-05-25T19:35:54.161Z,7.87
2019-05-25T19:38:20.897Z,7.37
2019-05-25T19:40:48.100Z,7.60
2019-05-25T19:43:15.291Z,7.90
2019-05-25T19:45:42.460Z,7.70
2019-05-25T19:48:09.652Z,7.33
2019-05-25T19:50:36.841Z,7.40
2019-05-25T19:53:04.044Z,7.00
2019-05-25T19:55:31.245Z,7.67
2019-05-25T19:57:58.444Z,7.90
2019-05-25T20:00:25.605Z,7.50
2019-05-25T20:02:52.907Z,7.70
2019-05-25T20:05:20.095Z,7.87
2019-05-25T20:07:47.292Z,8.03
2019-05-25T20:10:14.688Z,8.50
2019-05-25T20:12:41.884Z,8.87
2019-05-25T20:15:09.567Z,8.67
2019-05-25T20:17:36.753Z,9.17
2019-05-25T20:20:05.777Z,8.83
2019-05-25T20:22:32.985Z,9.30
2019-05-25T20:25:00.176Z,10.20
2019-05-25T20:27:27.364Z,8.57
2019-05-25T20:29:54.536Z,7.77
2019-05-25T20:32:21.721Z,9.07
2019-05-25T20:34:48.917Z,8.07
2019-05-25T20:37:16.088Z,8.23
2019-05-25T20:39:43.269Z,8.70
2019-05-25T20:42:10.452Z,9.77
2019-05-25T20:44:37.625Z,10.47
2019-05-25T20:47:04.813Z,10.30
2019-05-25T20:49:32.025Z,11.23
2019-05-25T20:51:59.197Z,11.03
2019-05-25T20:54:26.374Z,10.20
2019-05-25T20:56:53.558Z,9.93
2019-05-25T20:59:20.720Z,10.63
2019-05-25T21:01:47.895Z,10.77
2019-05-25T21:04:15.073Z,11.37
2019-05-25T21:06:42.248Z,11.17
2019-05-25T21:09:09.602Z,11.40
2019-05-25T21:11:36.813Z,11.03
2019-05-25T21:14:04.103Z,11.60
2019-05-25T21:16:31.295Z,13.27
2019-05-25T21:18:58.476Z,13.63
2019-05-25T21:21:25.680Z,13.67
2019-05-25T21:23:52.876Z,11.93
2019-05-25T21:26:20.068Z,13.20
2019-05-25T21:28:47.247Z,12.60
2019-05-25T21:31:14.432Z,13.50
2019-05-25T21:33:41.736Z,12.13
2019-05-25T21:36:09.513Z,10.70
2019-05-25T21:38:36.861Z,11.00
2019-05-25T21:41:04.072Z,10.20
2019-05-25T21:43:31.247Z,9.90
2019-05-25T21:45:58.444Z,10.27
2019-05-25T21:48:25.745Z,9.77
2019-05-25T21:50:52.941Z,12.23
2019-05-25T21:53:20.141Z,9.30
2019-05-25T21:55:47.340Z,9.30
2019-05-25T21:58:14.508Z,11.50
2019-05-25T22:00:42.498Z,9.77
2019-05-25T22:03:09.680Z,10.73
2019-05-25T22:05:36.881Z,11.57
2019-05-25T22:08:04.181Z,11.67
2019-05-25T22:10:31.380Z,11.20
2019-05-25T22:12:58.685Z,12.30
2019-05-25T22:15:25.885Z,12.57
2019-05-25T22:17:54.976Z,11.20
2019-05-25T22:20:22.184Z,12.00
2019-05-25T22:22:49.480Z,12.20
2019-05-25T22:25:16.681Z,11.37
2019-05-25T22:27:43.869Z,11.70
2019-05-25T22:30:11.791Z,12.13
2019-05-25T22:32:38.973Z,10.83
2019-05-25T22:35:06.466Z,12.00
2019-05-25T22:37:33.662Z,11.90
2019-05-25T22:40:00.845Z,12.87
2019-05-25T22:42:28.056Z,13.07
2019-05-25T22:44:55.248Z,11.90
2019-05-25T22:47:22.456Z,11.40
2019-05-25T22:49:49.729Z,12.70
2019-05-25T22:52:16.912Z,11.10
2019-05-25T22:54:44.112Z,13.13
2019-05-25T22:57:11.333Z,11.00
2019-05-25T22:59:38.528Z,13.43
2019-05-25T23:02:05.743Z,13.77
2019-05-25T23:04:32.916Z,11.93
2019-05-25T23:07:00.116Z,11.70
2019-05-25T23:09:27.297Z,12.73
2019-05-25T23:11:54.508Z,13.70
2019-05-25T23:14:21.724Z,13.80
2019-05-25T23:16:48.920Z,12.60
2019-05-25T23:19:16.206Z,12.43
2019-05-25T23:21:43.396Z,13.50
2019-05-25T23:24:10.752Z,13.10
2019-05-25T23:26:38.124Z,11.40
2019-05-25T23:29:05.530Z,12.70
2019-05-25T23:31:32.631Z,11.37
2019-05-25T23:33:59.796Z,12.63
2019-05-25T23:36:27.189Z,13.80
2019-05-25T23:38:54.376Z,15.27
2019-05-25T23:41:21.553Z,12.87
2019-05-25T23:43:48.740Z,14.60
2019-05-25T23:46:15.921Z,16.07
2019-05-25T23:48:43.085Z,20.00
2019-05-25T23:51:10.384Z,29.17
2019-05-25T23:53:37.580Z,18.20
2019-05-25T23:56:04.748Z,13.40
2019-05-25T23:58:31.946Z,13.90
